sensor_id;sensor_type;location;lat;lon;timestamp;temperature;humidity
18703;DHT22;9481;48.796;9.210;2022-09-24T00:01:25;18.60;50.90
18703;DHT22;9481;48.796;9.210;2022-09-24T00:03:59;18.50;50.60
18703;DHT22;9481;48.796;9.210;2022-09-24T00:06:28;18.60;50.70
18703;DHT22;9481;48.796;9.210;2022-09-24T00:08:55;18.50;50.70
18703;DHT22;9481;48.796;9.210;2022-09-24T00:11:24;18.50;50.70
18703;DHT22;9481;48.796;9.210;2022-09-24T00:13:51;18.50;50.70
18703;DHT22;9481;48.796;9.210;2022-09-24T00:16:19;18.50;50.80
18703;DHT22;9481;48.796;9.210;2022-09-24T00:18:47;18.50;50.80
18703;DHT22;9481;48.796;9.210;2022-09-24T00:21:18;18.50;50.80
18703;DHT22;9481;48.796;9.210;2022-09-24T00:24:01;18.50;50.90
18703;DHT22;9481;48.796;9.210;2022-09-24T00:26:29;18.50;51.00
18703;DHT22;9481;48.796;9.210;2022-09-24T00:29:22;18.50;50.90
18703;DHT22;9481;48.796;9.210;2022-09-24T00:31:49;18.50;50.90
18703;DHT22;9481;48.796;9.210;2022-09-24T00:34:17;18.50;50.80
18703;DHT22;9481;48.796;9.210;2022-09-24T00:36:43;18.40;50.80
18703;DHT22;9481;48.796;9.210;2022-09-24T00:39:11;18.40;50.80
18703;DHT22;9481;48.796;9.210;2022-09-24T00:41:38;18.40;50.90
18703;DHT22;9481;48.796;9.210;2022-09-24T00:47:24;18.40;51.50
18703;DHT22;9481;48.796;9.210;2022-09-24T00:50:17;18.30;51.00
18703;DHT22;9481;48.796;9.210;2022-09-24T00:53:00;18.30;51.30
18703;DHT22;9481;48.796;9.210;2022-09-24T00:55:33;18.30;50.90
18703;DHT22;9481;48.796;9.210;2022-09-24T00:58:02;18.20;50.80
18703;DHT22;9481;48.796;9.210;2022-09-24T01:00:32;18.20;50.90
18703;DHT22;9481;48.796;9.210;2022-09-24T01:03:04;18.20;50.90
18703;DHT22;9481;48.796;9.210;2022-09-24T01:05:35;18.20;51.00
18703;DHT22;9481;48.796;9.210;2022-09-24T01:08:02;18.20;51.00
18703;DHT22;9481;48.796;9.210;2022-09-24T01:13:38;18.20;51.30
18703;DHT22;9481;48.796;9.210;2022-09-24T01:16:24;18.20;51.20
18703;DHT22;9481;48.796;9.210;2022-09-24T01:19:27;18.10;50.80
18703;DHT22;9481;48.796;9.210;2022-09-24T01:25:20;18.10;51.30
18703;DHT22;9481;48.796;9.210;2022-09-24T01:30:21;18.00;50.90
18703;DHT22;9481;48.796;9.210;2022-09-24T01:32:53;18.00;51.00
18703;DHT22;9481;48.796;9.210;2022-09-24T01:35:34;18.00;51.90
18703;DHT22;9481;48.796;9.210;2022-09-24T01:38:16;18.00;51.30
18703;DHT22;9481;48.796;9.210;2022-09-24T01:40:45;18.00;51.40
18703;DHT22;9481;48.796;9.210;2022-09-24T01:43:15;17.90;51.00
18703;DHT22;9481;48.796;9.210;2022-09-24T01:45:44;17.90;51.10
18703;DHT22;9481;48.796;9.210;2022-09-24T01:48:10;17.80;51.00
18703;DHT22;9481;48.796;9.210;2022-09-24T01:50:44;17.80;51.00
18703;DHT22;9481;48.796;9.210;2022-09-24T01:53:25;17.80;51.30
18703;DHT22;9481;48.796;9.210;2022-09-24T01:55:59;17.80;51.30
18703;DHT22;9481;48.796;9.210;2022-09-24T01:58:36;17.80;51.20
18703;DHT22;9481;48.796;9.210;2022-09-24T02:01:16;17.70;51.20
18703;DHT22;9481;48.796;9.210;2022-09-24T02:03:52;17.70;51.30
18703;DHT22;9481;48.796;9.210;2022-09-24T02:06:32;17.70;51.30
18703;DHT22;9481;48.796;9.210;2022-09-24T02:09:01;17.60;51.20
18703;DHT22;9481;48.796;9.210;2022-09-24T02:11:27;17.60;51.20
18703;DHT22;9481;48.796;9.210;2022-09-24T02:14:12;17.60;51.30
18703;DHT22;9481;48.796;9.210;2022-09-24T02:16:47;17.50;51.70
18703;DHT22;9481;48.796;9.210;2022-09-24T02:19:18;17.50;51.60
18703;DHT22;9481;48.796;9.210;2022-09-24T02:21:50;17.50;51.50
18703;DHT22;9481;48.796;9.210;2022-09-24T02:24:23;17.50;51.50
18703;DHT22;9481;48.796;9.210;2022-09-24T02:27:01;17.50;51.70
18703;DHT22;9481;48.796;9.210;2022-09-24T02:29:27;17.40;51.40
18703;DHT22;9481;48.796;9.210;2022-09-24T02:31:54;17.40;51.60
18703;DHT22;9481;48.796;9.210;2022-09-24T02:34:26;17.40;51.60
18703;DHT22;9481;48.796;9.210;2022-09-24T02:36:59;17.40;51.80
18703;DHT22;9481;48.796;9.210;2022-09-24T02:39:31;17.30;51.60
18703;DHT22;9481;48.796;9.210;2022-09-24T02:41:57;17.30;51.70
18703;DHT22;9481;48.796;9.210;2022-09-24T02:44:25;17.20;51.80
18703;DHT22;9481;48.796;9.210;2022-09-24T02:46:51;17.20;51.90
18703;DHT22;9481;48.796;9.210;2022-09-24T02:49:17;17.20;52.10
18703;DHT22;9481;48.796;9.210;2022-09-24T02:51:43;17.20;52.30
18703;DHT22;9481;48.796;9.210;2022-09-24T02:54:10;17.20;52.30
18703;DHT22;9481;48.796;9.210;2022-09-24T02:56:36;17.20;52.40
18703;DHT22;9481;48.796;9.210;2022-09-24T02:59:02;17.20;52.40
18703;DHT22;9481;48.796;9.210;2022-09-24T03:01:29;17.20;52.50
18703;DHT22;9481;48.796;9.210;2022-09-24T03:03:56;17.20;52.40
18703;DHT22;9481;48.796;9.210;2022-09-24T03:06:22;17.20;52.60
18703;DHT22;9481;48.796;9.210;2022-09-24T03:08:49;17.20;52.60
18703;DHT22;9481;48.796;9.210;2022-09-24T03:11:18;17.20;52.70
18703;DHT22;9481;48.796;9.210;2022-09-24T03:13:46;17.20;52.80
18703;DHT22;9481;48.796;9.210;2022-09-24T03:16:11;17.20;52.90
18703;DHT22;9481;48.796;9.210;2022-09-24T03:18:37;17.20;52.90
18703;DHT22;9481;48.796;9.210;2022-09-24T03:21:05;17.30;53.00
18703;DHT22;9481;48.796;9.210;2022-09-24T03:23:33;17.30;53.10
18703;DHT22;9481;48.796;9.210;2022-09-24T03:26:00;17.30;52.90
18703;DHT22;9481;48.796;9.210;2022-09-24T03:28:26;17.30;53.10
18703;DHT22;9481;48.796;9.210;2022-09-24T03:30:53;17.40;53.20
18703;DHT22;9481;48.796;9.210;2022-09-24T03:36:07;17.40;53.40
18703;DHT22;9481;48.796;9.210;2022-09-24T03:38:39;17.40;53.20
18703;DHT22;9481;48.796;9.210;2022-09-24T03:41:07;17.40;53.00
18703;DHT22;9481;48.796;9.210;2022-09-24T03:43:34;17.40;53.00
18703;DHT22;9481;48.796;9.210;2022-09-24T03:46:00;17.40;52.90
18703;DHT22;9481;48.796;9.210;2022-09-24T03:48:26;17.40;52.90
18703;DHT22;9481;48.796;9.210;2022-09-24T03:50:52;17.40;53.00
18703;DHT22;9481;48.796;9.210;2022-09-24T03:53:19;17.40;53.10
18703;DHT22;9481;48.796;9.210;2022-09-24T03:55:47;17.40;53.00
18703;DHT22;9481;48.796;9.210;2022-09-24T03:58:17;17.30;52.90
18703;DHT22;9481;48.796;9.210;2022-09-24T04:00:42;17.40;53.10
18703;DHT22;9481;48.796;9.210;2022-09-24T04:03:09;17.40;53.00
18703;DHT22;9481;48.796;9.210;2022-09-24T04:05:35;17.40;53.00
18703;DHT22;9481;48.796;9.210;2022-09-24T04:08:01;17.30;52.90
18703;DHT22;9481;48.796;9.210;2022-09-24T04:10:29;17.30;52.90
18703;DHT22;9481;48.796;9.210;2022-09-24T04:12:55;17.30;52.90
18703;DHT22;9481;48.796;9.210;2022-09-24T04:15:21;17.30;52.90
18703;DHT22;9481;48.796;9.210;2022-09-24T04:17:55;17.20;52.90
18703;DHT22;9481;48.796;9.210;2022-09-24T04:20:25;17.20;53.30
18703;DHT22;9481;48.796;9.210;2022-09-24T04:22:53;17.20;53.30
18703;DHT22;9481;48.796;9.210;2022-09-24T04:25:21;17.20;53.40
18703;DHT22;9481;48.796;9.210;2022-09-24T04:28:05;17.20;53.50
18703;DHT22;9481;48.796;9.210;2022-09-24T04:30:33;17.20;53.90
18703;DHT22;9481;48.796;9.210;2022-09-24T04:32:59;17.20;53.40
18703;DHT22;9481;48.796;9.210;2022-09-24T04:35:28;17.20;53.40
18703;DHT22;9481;48.796;9.210;2022-09-24T04:37:56;17.20;53.40
18703;DHT22;9481;48.796;9.210;2022-09-24T04:40:23;17.20;53.30
18703;DHT22;9481;48.796;9.210;2022-09-24T04:42:49;17.20;53.40
18703;DHT22;9481;48.796;9.210;2022-09-24T04:45:15;17.20;53.50
18703;DHT22;9481;48.796;9.210;2022-09-24T04:47:46;17.20;53.60
18703;DHT22;9481;48.796;9.210;2022-09-24T04:50:17;17.20;53.50
18703;DHT22;9481;48.796;9.210;2022-09-24T04:52:43;17.20;53.50
18703;DHT22;9481;48.796;9.210;2022-09-24T04:55:09;17.20;53.60
18703;DHT22;9481;48.796;9.210;2022-09-24T04:57:34;17.20;53.60
18703;DHT22;9481;48.796;9.210;2022-09-24T05:00:05;17.20;53.60
18703;DHT22;9481;48.796;9.210;2022-09-24T05:02:33;17.20;53.70
18703;DHT22;9481;48.796;9.210;2022-09-24T05:04:59;17.20;53.50
18703;DHT22;9481;48.796;9.210;2022-09-24T05:07:24;17.20;53.50
18703;DHT22;9481;48.796;9.210;2022-09-24T05:09:50;17.20;53.40
18703;DHT22;9481;48.796;9.210;2022-09-24T05:12:16;17.20;54.10
18703;DHT22;9481;48.796;9.210;2022-09-24T05:14:43;17.20;53.40
18703;DHT22;9481;48.796;9.210;2022-09-24T05:17:08;17.20;53.40
18703;DHT22;9481;48.796;9.210;2022-09-24T05:19:34;17.20;53.50
18703;DHT22;9481;48.796;9.210;2022-09-24T05:22:00;17.20;53.40
18703;DHT22;9481;48.796;9.210;2022-09-24T05:24:25;17.20;53.40
18703;DHT22;9481;48.796;9.210;2022-09-24T05:26:51;17.10;53.40
18703;DHT22;9481;48.796;9.210;2022-09-24T05:29:36;17.10;53.40
18703;DHT22;9481;48.796;9.210;2022-09-24T05:32:07;17.10;53.40
18703;DHT22;9481;48.796;9.210;2022-09-24T05:34:34;17.10;53.50
18703;DHT22;9481;48.796;9.210;2022-09-24T05:37:01;17.10;53.60
18703;DHT22;9481;48.796;9.210;2022-09-24T05:39:28;17.10;53.60
18703;DHT22;9481;48.796;9.210;2022-09-24T05:41:55;17.00;53.50
18703;DHT22;9481;48.796;9.210;2022-09-24T05:44:21;17.00;53.80
18703;DHT22;9481;48.796;9.210;2022-09-24T05:46:48;17.00;53.70
18703;DHT22;9481;48.796;9.210;2022-09-24T05:49:14;17.00;53.60
18703;DHT22;9481;48.796;9.210;2022-09-24T05:51:40;17.00;53.60
18703;DHT22;9481;48.796;9.210;2022-09-24T05:54:06;17.00;53.70
18703;DHT22;9481;48.796;9.210;2022-09-24T05:56:32;17.00;53.70
18703;DHT22;9481;48.796;9.210;2022-09-24T05:58:58;17.00;53.70
18703;DHT22;9481;48.796;9.210;2022-09-24T06:01:26;17.00;53.70
18703;DHT22;9481;48.796;9.210;2022-09-24T06:03:55;17.00;53.80
18703;DHT22;9481;48.796;9.210;2022-09-24T06:06:22;17.00;53.90
18703;DHT22;9481;48.796;9.210;2022-09-24T06:08:48;17.00;53.90
18703;DHT22;9481;48.796;9.210;2022-09-24T06:11:13;17.00;53.90
18703;DHT22;9481;48.796;9.210;2022-09-24T06:13:39;17.00;54.10
18703;DHT22;9481;48.796;9.210;2022-09-24T06:16:06;17.00;54.20
18703;DHT22;9481;48.796;9.210;2022-09-24T06:18:37;17.00;54.20
18703;DHT22;9481;48.796;9.210;2022-09-24T06:21:07;17.00;54.40
18703;DHT22;9481;48.796;9.210;2022-09-24T06:23:36;17.10;54.30
18703;DHT22;9481;48.796;9.210;2022-09-24T06:26:04;17.10;54.20
18703;DHT22;9481;48.796;9.210;2022-09-24T06:28:34;17.10;54.20
18703;DHT22;9481;48.796;9.210;2022-09-24T06:31:02;17.20;54.30
18703;DHT22;9481;48.796;9.210;2022-09-24T06:33:28;17.20;54.20
18703;DHT22;9481;48.796;9.210;2022-09-24T06:35:58;17.20;54.10
18703;DHT22;9481;48.796;9.210;2022-09-24T06:38:25;17.30;54.20
18703;DHT22;9481;48.796;9.210;2022-09-24T06:40:51;17.30;54.00
18703;DHT22;9481;48.796;9.210;2022-09-24T06:43:17;17.30;54.00
18703;DHT22;9481;48.796;9.210;2022-09-24T06:45:43;17.30;54.00
18703;DHT22;9481;48.796;9.210;2022-09-24T06:48:12;17.30;54.00
18703;DHT22;9481;48.796;9.210;2022-09-24T06:50:40;17.40;54.10
18703;DHT22;9481;48.796;9.210;2022-09-24T06:53:08;17.30;53.90
18703;DHT22;9481;48.796;9.210;2022-09-24T06:55:35;17.40;54.70
18703;DHT22;9481;48.796;9.210;2022-09-24T06:58:07;17.40;54.80
18703;DHT22;9481;48.796;9.210;2022-09-24T07:00:35;17.40;54.90
18703;DHT22;9481;48.796;9.210;2022-09-24T07:03:06;17.50;55.00
18703;DHT22;9481;48.796;9.210;2022-09-24T07:05:37;17.60;55.00
18703;DHT22;9481;48.796;9.210;2022-09-24T07:08:02;17.70;54.90
18703;DHT22;9481;48.796;9.210;2022-09-24T07:10:28;17.80;55.00
18703;DHT22;9481;48.796;9.210;2022-09-24T07:12:53;17.90;54.90
18703;DHT22;9481;48.796;9.210;2022-09-24T07:15:19;18.00;54.70
18703;DHT22;9481;48.796;9.210;2022-09-24T07:17:45;18.10;54.60
18703;DHT22;9481;48.796;9.210;2022-09-24T07:20:10;18.20;54.40
18703;DHT22;9481;48.796;9.210;2022-09-24T07:22:37;18.20;54.20
18703;DHT22;9481;48.796;9.210;2022-09-24T07:25:06;18.30;54.10
18703;DHT22;9481;48.796;9.210;2022-09-24T07:27:33;18.30;54.10
18703;DHT22;9481;48.796;9.210;2022-09-24T07:29:59;18.30;54.00
18703;DHT22;9481;48.796;9.210;2022-09-24T07:32:24;18.30;54.10
18703;DHT22;9481;48.796;9.210;2022-09-24T07:34:50;18.20;54.00
18703;DHT22;9481;48.796;9.210;2022-09-24T07:37:18;18.20;54.10
18703;DHT22;9481;48.796;9.210;2022-09-24T07:39:44;18.20;54.10
18703;DHT22;9481;48.796;9.210;2022-09-24T07:42:10;18.20;54.20
18703;DHT22;9481;48.796;9.210;2022-09-24T07:44:35;18.30;54.10
18703;DHT22;9481;48.796;9.210;2022-09-24T07:47:02;18.20;54.00
18703;DHT22;9481;48.796;9.210;2022-09-24T07:49:28;18.20;54.00
18703;DHT22;9481;48.796;9.210;2022-09-24T07:51:56;18.20;54.10
18703;DHT22;9481;48.796;9.210;2022-09-24T07:54:23;18.20;54.00
18703;DHT22;9481;48.796;9.210;2022-09-24T07:56:48;18.20;54.00
18703;DHT22;9481;48.796;9.210;2022-09-24T07:59:14;18.20;54.10
18703;DHT22;9481;48.796;9.210;2022-09-24T08:01:40;18.20;54.20
18703;DHT22;9481;48.796;9.210;2022-09-24T08:04:05;18.20;54.20
18703;DHT22;9481;48.796;9.210;2022-09-24T08:06:34;18.30;54.30
18703;DHT22;9481;48.796;9.210;2022-09-24T08:08:59;18.30;54.50
18703;DHT22;9481;48.796;9.210;2022-09-24T08:11:26;18.30;54.60
18703;DHT22;9481;48.796;9.210;2022-09-24T08:13:54;18.30;54.70
18703;DHT22;9481;48.796;9.210;2022-09-24T08:16:22;18.40;54.90
18703;DHT22;9481;48.796;9.210;2022-09-24T08:18:48;18.40;54.80
18703;DHT22;9481;48.796;9.210;2022-09-24T08:21:14;18.40;54.90
18703;DHT22;9481;48.796;9.210;2022-09-24T08:23:41;18.40;54.80
18703;DHT22;9481;48.796;9.210;2022-09-24T08:26:08;18.50;55.00
18703;DHT22;9481;48.796;9.210;2022-09-24T08:28:35;18.50;55.00
18703;DHT22;9481;48.796;9.210;2022-09-24T08:31:03;18.50;55.00
18703;DHT22;9481;48.796;9.210;2022-09-24T08:33:33;18.60;55.30
18703;DHT22;9481;48.796;9.210;2022-09-24T08:36:05;18.60;55.30
18703;DHT22;9481;48.796;9.210;2022-09-24T08:38:32;18.60;55.40
18703;DHT22;9481;48.796;9.210;2022-09-24T08:44:04;18.70;55.50
18703;DHT22;9481;48.796;9.210;2022-09-24T08:46:39;18.70;55.70
18703;DHT22;9481;48.796;9.210;2022-09-24T08:49:37;18.80;55.60
18703;DHT22;9481;48.796;9.210;2022-09-24T08:52:28;18.90;55.50
18703;DHT22;9481;48.796;9.210;2022-09-24T08:55:17;18.90;55.60
18703;DHT22;9481;48.796;9.210;2022-09-24T09:10:06;19.30;55.50
18703;DHT22;9481;48.796;9.210;2022-09-24T09:12:38;19.40;55.40
18703;DHT22;9481;48.796;9.210;2022-09-24T09:15:17;19.40;55.00
18703;DHT22;9481;48.796;9.210;2022-09-24T09:17:53;19.40;55.00
18703;DHT22;9481;48.796;9.210;2022-09-24T09:20:39;19.50;55.00
18703;DHT22;9481;48.796;9.210;2022-09-24T09:23:21;19.60;55.00
18703;DHT22;9481;48.796;9.210;2022-09-24T09:25:57;19.60;54.70
18703;DHT22;9481;48.796;9.210;2022-09-24T09:28:28;19.70;54.80
18703;DHT22;9481;48.796;9.210;2022-09-24T09:31:31;19.70;54.90
18703;DHT22;9481;48.796;9.210;2022-09-24T09:37:17;19.80;54.70
18703;DHT22;9481;48.796;9.210;2022-09-24T09:42:49;19.80;54.90
18703;DHT22;9481;48.796;9.210;2022-09-24T09:45:30;19.80;54.60
18703;DHT22;9481;48.796;9.210;2022-09-24T09:48:03;19.80;54.80
18703;DHT22;9481;48.796;9.210;2022-09-24T09:50:47;19.70;54.50
18703;DHT22;9481;48.796;9.210;2022-09-24T09:53:31;19.70;54.70
18703;DHT22;9481;48.796;9.210;2022-09-24T09:55:59;19.70;54.90
18703;DHT22;9481;48.796;9.210;2022-09-24T09:58:30;19.70;54.80
18703;DHT22;9481;48.796;9.210;2022-09-24T10:01:08;19.70;55.00
18703;DHT22;9481;48.796;9.210;2022-09-24T10:06:10;19.70;55.10
18703;DHT22;9481;48.796;9.210;2022-09-24T10:08:38;19.70;55.20
18703;DHT22;9481;48.796;9.210;2022-09-24T10:11:05;19.60;55.20
18703;DHT22;9481;48.796;9.210;2022-09-24T10:13:38;19.70;55.40
18703;DHT22;9481;48.796;9.210;2022-09-24T10:16:08;19.70;55.50
18703;DHT22;9481;48.796;9.210;2022-09-24T10:18:40;19.70;55.70
18703;DHT22;9481;48.796;9.210;2022-09-24T10:21:13;19.70;55.90
18703;DHT22;9481;48.796;9.210;2022-09-24T10:23:49;19.70;55.90
18703;DHT22;9481;48.796;9.210;2022-09-24T10:26:15;19.70;55.80
18703;DHT22;9481;48.796;9.210;2022-09-24T10:28:46;19.70;55.90
18703;DHT22;9481;48.796;9.210;2022-09-24T10:31:39;19.70;56.20
18703;DHT22;9481;48.796;9.210;2022-09-24T10:34:20;19.70;56.20
18703;DHT22;9481;48.796;9.210;2022-09-24T10:36:58;19.70;56.10
18703;DHT22;9481;48.796;9.210;2022-09-24T10:39:26;19.70;56.10
18703;DHT22;9481;48.796;9.210;2022-09-24T10:41:54;19.70;55.80
18703;DHT22;9481;48.796;9.210;2022-09-24T10:44:22;19.60;55.80
18703;DHT22;9481;48.796;9.210;2022-09-24T10:53:06;19.50;56.40
18703;DHT22;9481;48.796;9.210;2022-09-24T10:55:54;19.50;57.00
18703;DHT22;9481;48.796;9.210;2022-09-24T10:58:49;19.50;57.20
18703;DHT22;9481;48.796;9.210;2022-09-24T11:04:29;19.40;57.40
18703;DHT22;9481;48.796;9.210;2022-09-24T11:21:49;19.20;58.60
18703;DHT22;9481;48.796;9.210;2022-09-24T11:27:48;19.20;59.10
18703;DHT22;9481;48.796;9.210;2022-09-24T11:30:20;19.30;59.10
18703;DHT22;9481;48.796;9.210;2022-09-24T11:33:09;19.30;58.90
18703;DHT22;9481;48.796;9.210;2022-09-24T11:36:21;19.30;60.40
18703;DHT22;9481;48.796;9.210;2022-09-24T11:42:50;19.40;59.70
18703;DHT22;9481;48.796;9.210;2022-09-24T11:49:00;19.40;59.20
18703;DHT22;9481;48.796;9.210;2022-09-24T11:52:04;19.40;58.70
18703;DHT22;9481;48.796;9.210;2022-09-24T11:57:36;19.40;59.20
18703;DHT22;9481;48.796;9.210;2022-09-24T12:00:15;19.40;59.60
18703;DHT22;9481;48.796;9.210;2022-09-24T12:02:49;19.40;59.50
18703;DHT22;9481;48.796;9.210;2022-09-24T12:05:29;19.40;59.40
18703;DHT22;9481;48.796;9.210;2022-09-24T12:08:03;19.40;59.60
18703;DHT22;9481;48.796;9.210;2022-09-24T12:10:51;19.40;59.40
18703;DHT22;9481;48.796;9.210;2022-09-24T12:13:44;19.40;59.70
18703;DHT22;9481;48.796;9.210;2022-09-24T12:16:15;19.50;59.50
18703;DHT22;9481;48.796;9.210;2022-09-24T12:21:46;19.50;59.80
18703;DHT22;9481;48.796;9.210;2022-09-24T12:24:36;19.60;59.40
18703;DHT22;9481;48.796;9.210;2022-09-24T12:27:36;19.60;59.80
18703;DHT22;9481;48.796;9.210;2022-09-24T12:30:20;19.60;59.70
18703;DHT22;9481;48.796;9.210;2022-09-24T12:33:19;19.70;59.70
18703;DHT22;9481;48.796;9.210;2022-09-24T12:36:12;19.70;59.40
18703;DHT22;9481;48.796;9.210;2022-09-24T12:39:04;19.70;59.50
18703;DHT22;9481;48.796;9.210;2022-09-24T12:41:39;19.70;60.00
18703;DHT22;9481;48.796;9.210;2022-09-24T12:44:13;19.70;59.60
18703;DHT22;9481;48.796;9.210;2022-09-24T12:46:56;19.70;59.40
18703;DHT22;9481;48.796;9.210;2022-09-24T12:51:53;19.70;59.40
18703;DHT22;9481;48.796;9.210;2022-09-24T12:54:34;19.80;59.50
18703;DHT22;9481;48.796;9.210;2022-09-24T12:57:29;19.80;59.30
18703;DHT22;9481;48.796;9.210;2022-09-24T13:00:03;19.80;59.40
18703;DHT22;9481;48.796;9.210;2022-09-24T13:02:49;19.80;59.30
18703;DHT22;9481;48.796;9.210;2022-09-24T13:10:58;19.80;59.80
18703;DHT22;9481;48.796;9.210;2022-09-24T13:13:32;19.90;60.00
18703;DHT22;9481;48.796;9.210;2022-09-24T13:16:06;19.90;59.60
18703;DHT22;9481;48.796;9.210;2022-09-24T13:18:42;19.90;59.70
18703;DHT22;9481;48.796;9.210;2022-09-24T13:21:25;19.90;59.70
18703;DHT22;9481;48.796;9.210;2022-09-24T13:23:53;19.90;59.70
18703;DHT22;9481;48.796;9.210;2022-09-24T13:26:27;19.90;59.50
18703;DHT22;9481;48.796;9.210;2022-09-24T13:29:03;19.90;59.50
18703;DHT22;9481;48.796;9.210;2022-09-24T13:31:46;19.90;59.70
18703;DHT22;9481;48.796;9.210;2022-09-24T13:34:35;19.90;60.30
18703;DHT22;9481;48.796;9.210;2022-09-24T13:37:10;19.90;60.50
18703;DHT22;9481;48.796;9.210;2022-09-24T13:39:47;19.90;60.10
18703;DHT22;9481;48.796;9.210;2022-09-24T13:42:35;19.90;60.30
18703;DHT22;9481;48.796;9.210;2022-09-24T13:45:14;19.90;60.70
18703;DHT22;9481;48.796;9.210;2022-09-24T13:48:11;19.90;60.50
18703;DHT22;9481;48.796;9.210;2022-09-24T13:50:49;19.90;61.30
18703;DHT22;9481;48.796;9.210;2022-09-24T13:53:32;20.00;61.20
18703;DHT22;9481;48.796;9.210;2022-09-24T13:56:10;20.10;61.50
18703;DHT22;9481;48.796;9.210;2022-09-24T13:58:38;20.10;61.20
18703;DHT22;9481;48.796;9.210;2022-09-24T14:01:24;20.20;61.10
18703;DHT22;9481;48.796;9.210;2022-09-24T14:04:11;20.20;61.50
18703;DHT22;9481;48.796;9.210;2022-09-24T14:07:01;20.30;61.60
18703;DHT22;9481;48.796;9.210;2022-09-24T14:09:31;20.40;62.00
18703;DHT22;9481;48.796;9.210;2022-09-24T14:12:13;20.50;62.00
18703;DHT22;9481;48.796;9.210;2022-09-24T14:14:45;20.50;61.40
18703;DHT22;9481;48.796;9.210;2022-09-24T14:17:15;20.60;61.20
18703;DHT22;9481;48.796;9.210;2022-09-24T14:19:41;20.60;60.60
18703;DHT22;9481;48.796;9.210;2022-09-24T14:22:18;20.60;60.50
18703;DHT22;9481;48.796;9.210;2022-09-24T14:27:27;20.60;60.60
18703;DHT22;9481;48.796;9.210;2022-09-24T14:30:22;20.60;60.20
18703;DHT22;9481;48.796;9.210;2022-09-24T14:32:55;20.60;60.30
18703;DHT22;9481;48.796;9.210;2022-09-24T14:35:35;20.50;60.00
18703;DHT22;9481;48.796;9.210;2022-09-24T14:38:05;20.50;60.50
18703;DHT22;9481;48.796;9.210;2022-09-24T14:40:46;20.50;59.90
18703;DHT22;9481;48.796;9.210;2022-09-24T14:43:28;20.40;60.10
18703;DHT22;9481;48.796;9.210;2022-09-24T14:46:05;20.40;60.40
18703;DHT22;9481;48.796;9.210;2022-09-24T14:48:34;20.30;60.20
18703;DHT22;9481;48.796;9.210;2022-09-24T14:51:00;20.30;60.20
18703;DHT22;9481;48.796;9.210;2022-09-24T14:53:29;20.30;60.40
18703;DHT22;9481;48.796;9.210;2022-09-24T14:56:19;20.20;60.50
18703;DHT22;9481;48.796;9.210;2022-09-24T14:58:56;20.20;60.50
18703;DHT22;9481;48.796;9.210;2022-09-24T15:01:28;20.20;60.50
18703;DHT22;9481;48.796;9.210;2022-09-24T15:04:03;20.20;60.60
18703;DHT22;9481;48.796;9.210;2022-09-24T15:06:34;20.20;60.80
18703;DHT22;9481;48.796;9.210;2022-09-24T15:09:02;20.10;60.50
18703;DHT22;9481;48.796;9.210;2022-09-24T15:11:49;20.20;60.60
18703;DHT22;9481;48.796;9.210;2022-09-24T15:16:44;20.10;60.40
18703;DHT22;9481;48.796;9.210;2022-09-24T15:19:19;20.10;60.50
18703;DHT22;9481;48.796;9.210;2022-09-24T15:21:51;20.10;60.80
18703;DHT22;9481;48.796;9.210;2022-09-24T15:24:21;20.10;60.70
18703;DHT22;9481;48.796;9.210;2022-09-24T15:26:59;20.10;61.30
18703;DHT22;9481;48.796;9.210;2022-09-24T15:29:30;20.10;60.90
18703;DHT22;9481;48.796;9.210;2022-09-24T15:31:57;20.10;60.90
18703;DHT22;9481;48.796;9.210;2022-09-24T15:34:23;20.10;61.10
18703;DHT22;9481;48.796;9.210;2022-09-24T15:36:53;20.10;61.10
18703;DHT22;9481;48.796;9.210;2022-09-24T15:39:21;20.20;61.40
18703;DHT22;9481;48.796;9.210;2022-09-24T15:41:49;20.10;61.20
18703;DHT22;9481;48.796;9.210;2022-09-24T15:44:23;20.20;61.20
18703;DHT22;9481;48.796;9.210;2022-09-24T15:46:50;20.20;61.40
18703;DHT22;9481;48.796;9.210;2022-09-24T15:49:17;20.20;61.20
18703;DHT22;9481;48.796;9.210;2022-09-24T15:52:13;20.20;61.20
18703;DHT22;9481;48.796;9.210;2022-09-24T15:54:49;20.30;61.80
18703;DHT22;9481;48.796;9.210;2022-09-24T15:57:16;20.30;61.00
18703;DHT22;9481;48.796;9.210;2022-09-24T15:59:41;20.30;60.80
18703;DHT22;9481;48.796;9.210;2022-09-24T16:02:24;20.30;60.80
18703;DHT22;9481;48.796;9.210;2022-09-24T16:04:53;20.30;61.20
18703;DHT22;9481;48.796;9.210;2022-09-24T16:07:19;20.30;60.60
18703;DHT22;9481;48.796;9.210;2022-09-24T16:09:44;20.30;60.40
18703;DHT22;9481;48.796;9.210;2022-09-24T16:12:14;20.30;60.30
18703;DHT22;9481;48.796;9.210;2022-09-24T16:14:42;20.30;60.60
18703;DHT22;9481;48.796;9.210;2022-09-24T16:17:08;20.30;60.20
18703;DHT22;9481;48.796;9.210;2022-09-24T16:19:35;20.20;60.00
18703;DHT22;9481;48.796;9.210;2022-09-24T16:22:00;20.20;60.00
18703;DHT22;9481;48.796;9.210;2022-09-24T16:24:26;20.20;60.00
18703;DHT22;9481;48.796;9.210;2022-09-24T16:26:56;20.20;60.10
18703;DHT22;9481;48.796;9.210;2022-09-24T16:29:22;20.20;60.10
18703;DHT22;9481;48.796;9.210;2022-09-24T16:31:47;20.20;60.20
18703;DHT22;9481;48.796;9.210;2022-09-24T16:34:13;20.20;60.30
18703;DHT22;9481;48.796;9.210;2022-09-24T16:36:39;20.10;60.10
18703;DHT22;9481;48.796;9.210;2022-09-24T16:39:05;20.10;60.10
18703;DHT22;9481;48.796;9.210;2022-09-24T16:41:30;20.10;60.10
18703;DHT22;9481;48.796;9.210;2022-09-24T16:43:59;20.10;60.00
18703;DHT22;9481;48.796;9.210;2022-09-24T16:46:26;20.10;60.10
18703;DHT22;9481;48.796;9.210;2022-09-24T16:48:52;20.00;60.20
18703;DHT22;9481;48.796;9.210;2022-09-24T16:51:18;20.00;60.20
18703;DHT22;9481;48.796;9.210;2022-09-24T16:53:44;19.90;61.10
18703;DHT22;9481;48.796;9.210;2022-09-24T16:56:15;19.90;60.50
18703;DHT22;9481;48.796;9.210;2022-09-24T16:58:43;19.80;60.60
18703;DHT22;9481;48.796;9.210;2022-09-24T17:01:13;19.80;60.70
18703;DHT22;9481;48.796;9.210;2022-09-24T17:03:40;19.70;60.90
18703;DHT22;9481;48.796;9.210;2022-09-24T17:06:07;19.80;61.00
18703;DHT22;9481;48.796;9.210;2022-09-24T17:08:41;19.70;61.10
18703;DHT22;9481;48.796;9.210;2022-09-24T17:11:25;19.70;62.10
18703;DHT22;9481;48.796;9.210;2022-09-24T17:13:51;19.70;61.30
18703;DHT22;9481;48.796;9.210;2022-09-24T17:16:16;19.60;61.30
18703;DHT22;9481;48.796;9.210;2022-09-24T17:18:43;19.60;61.30
18703;DHT22;9481;48.796;9.210;2022-09-24T17:21:11;19.50;61.30
18703;DHT22;9481;48.796;9.210;2022-09-24T17:23:38;19.50;61.40
18703;DHT22;9481;48.796;9.210;2022-09-24T17:26:09;19.50;61.50
18703;DHT22;9481;48.796;9.210;2022-09-24T17:28:37;19.50;61.60
18703;DHT22;9481;48.796;9.210;2022-09-24T17:31:06;19.50;61.60
18703;DHT22;9481;48.796;9.210;2022-09-24T17:33:33;19.40;61.50
18703;DHT22;9481;48.796;9.210;2022-09-24T17:36:01;19.40;61.60
18703;DHT22;9481;48.796;9.210;2022-09-24T17:38:29;19.40;61.70
18703;DHT22;9481;48.796;9.210;2022-09-24T17:41:01;19.40;61.70
18703;DHT22;9481;48.796;9.210;2022-09-24T17:43:29;19.40;62.70
18703;DHT22;9481;48.796;9.210;2022-09-24T17:48:23;19.40;61.90
18703;DHT22;9481;48.796;9.210;2022-09-24T17:50:56;19.40;61.90